sensor_id;sensor_type;location;lat;lon;timestamp;pressure;altitude;pressure_sealevel;temperature;humidity
71504;BME280;59323;50.874;7.028;2022-07-29T00:02:06;101130.91;;;19.21;54.22
71504;BME280;59323;50.874;7.028;2022-07-29T00:04:34;101125.03;;;19.19;54.12
71504;BME280;59323;50.874;7.028;2022-07-29T00:06:59;101127.00;;;19.18;54.47
71504;BME280;59323;50.874;7.028;2022-07-29T00:09:25;101121.13;;;19.16;54.46
71504;BME280;59323;50.874;7.028;2022-07-29T00:11:50;101121.91;;;19.17;54.43
71504;BME280;59323;50.874;7.028;2022-07-29T00:14:15;101112.13;;;19.12;54.38
71504;BME280;59323;50.874;7.028;2022-07-29T00:16:41;101111.72;;;19.14;54.63
71504;BME280;59323;50.874;7.028;2022-07-29T00:19:06;101112.91;;;19.13;54.62
71504;BME280;59323;50.874;7.028;2022-07-29T00:21:31;101119.97;;;19.14;54.54
71504;BME280;59323;50.874;7.028;2022-07-29T00:23:57;101117.22;;;19.14;54.77
71504;BME280;59323;50.874;7.028;2022-07-29T00:26:23;101114.09;;;19.12;54.68
71504;BME280;59323;50.874;7.028;2022-07-29T00:28:48;101108.69;;;19.05;54.84
71504;BME280;59323;50.874;7.028;2022-07-29T00:31:13;101101.25;;;19.02;54.64
71504;BME280;59323;50.874;7.028;2022-07-29T00:33:39;101106.34;;;19.03;54.93
71504;BME280;59323;50.874;7.028;2022-07-29T00:36:04;101097.75;;;18.97;55.50
71504;BME280;59323;50.874;7.028;2022-07-29T00:38:30;101106.72;;;19.05;55.64
71504;BME280;59323;50.874;7.028;2022-07-29T00:40:55;101098.88;;;19.04;55.56
71504;BME280;59323;50.874;7.028;2022-07-29T00:43:21;101095.78;;;18.98;55.50
71504;BME280;59323;50.874;7.028;2022-07-29T00:45:46;101094.19;;;19.00;55.55
71504;BME280;59323;50.874;7.028;2022-07-29T00:48:12;101096.19;;;18.96;55.85
71504;BME280;59323;50.874;7.028;2022-07-29T00:50:38;101094.22;;;18.97;56.11
71504;BME280;59323;50.874;7.028;2022-07-29T00:53:05;101088.03;;;18.89;56.34
71504;BME280;59323;50.874;7.028;2022-07-29T00:55:31;101087.66;;;18.87;55.91
71504;BME280;59323;50.874;7.028;2022-07-29T00:57:58;101081.31;;;18.90;55.90
71504;BME280;59323;50.874;7.028;2022-07-29T01:00:26;101072.34;;;18.83;55.99
71504;BME280;59323;50.874;7.028;2022-07-29T01:02:52;101080.59;;;18.86;56.07
71504;BME280;59323;50.874;7.028;2022-07-29T01:05:21;101068.44;;;18.80;56.17
71504;BME280;59323;50.874;7.028;2022-07-29T01:07:49;101059.03;;;18.78;56.34
71504;BME280;59323;50.874;7.028;2022-07-29T01:10:18;101071.56;;;18.82;56.22
71504;BME280;59323;50.874;7.028;2022-07-29T01:12:46;101056.34;;;18.74;56.54
71504;BME280;59323;50.874;7.028;2022-07-29T01:15:12;101052.84;;;18.70;56.58
71504;BME280;59323;50.874;7.028;2022-07-29T01:31:35;101037.94;;;18.67;56.40
71504;BME280;59323;50.874;7.028;2022-07-29T01:34:05;101041.47;;;18.68;56.07
71504;BME280;59323;50.874;7.028;2022-07-29T01:36:36;101033.63;;;18.66;56.20
71504;BME280;59323;50.874;7.028;2022-07-29T01:41:34;101042.56;;;18.74;56.59
71504;BME280;59323;50.874;7.028;2022-07-29T01:44:07;101040.25;;;18.69;56.72
71504;BME280;59323;50.874;7.028;2022-07-29T01:46:38;101044.53;;;18.74;56.39
71504;BME280;59323;50.874;7.028;2022-07-29T01:49:18;101054.72;;;18.77;56.71
71504;BME280;59323;50.874;7.028;2022-07-29T01:51:49;101046.47;;;18.77;57.20
71504;BME280;59323;50.874;7.028;2022-07-29T01:54:32;101035.44;;;18.77;57.39
71504;BME280;59323;50.874;7.028;2022-07-29T01:57:00;101030.44;;;18.68;57.30
71504;BME280;59323;50.874;7.028;2022-07-29T01:59:26;101030.34;;;18.75;57.77
71504;BME280;59323;50.874;7.028;2022-07-29T02:01:54;101033.53;;;18.74;58.28
71504;BME280;59323;50.874;7.028;2022-07-29T02:04:22;101031.59;;;18.71;58.30
71504;BME280;59323;50.874;7.028;2022-07-29T02:06:50;101034.72;;;18.73;58.42
71504;BME280;59323;50.874;7.028;2022-07-29T02:09:17;101022.66;;;18.63;58.56
71504;BME280;59323;50.874;7.028;2022-07-29T02:11:49;101033.19;;;18.68;58.48
71504;BME280;59323;50.874;7.028;2022-07-29T02:14:18;101026.19;;;18.60;58.54
71504;BME280;59323;50.874;7.028;2022-07-29T02:16:45;101027.78;;;18.57;58.70
71504;BME280;59323;50.874;7.028;2022-07-29T02:19:12;101027.44;;;18.55;58.72
71504;BME280;59323;50.874;7.028;2022-07-29T02:21:43;101021.56;;;18.53;58.61
71504;BME280;59323;50.874;7.028;2022-07-29T02:24:11;101018.88;;;18.46;58.36
71504;BME280;59323;50.874;7.028;2022-07-29T02:26:38;101021.28;;;18.44;58.76
71504;BME280;59323;50.874;7.028;2022-07-29T02:29:04;101018.56;;;18.41;58.71
71504;BME280;59323;50.874;7.028;2022-07-29T02:31:33;101028.75;;;18.44;58.98
71504;BME280;59323;50.874;7.028;2022-07-29T02:34:01;101022.53;;;18.36;58.75
71504;BME280;59323;50.874;7.028;2022-07-29T02:36:27;101021.84;;;18.28;58.64
71504;BME280;59323;50.874;7.028;2022-07-29T02:38:56;101019.50;;;18.27;58.92
71504;BME280;59323;50.874;7.028;2022-07-29T02:41:33;101017.59;;;18.20;58.97
71504;BME280;59323;50.874;7.028;2022-07-29T02:44:09;101026.66;;;18.21;59.12
71504;BME280;59323;50.874;7.028;2022-07-29T02:46:37;101025.47;;;18.18;59.63
71504;BME280;59323;50.874;7.028;2022-07-29T02:49:14;101035.31;;;18.16;59.63
71504;BME280;59323;50.874;7.028;2022-07-29T02:51:46;101020.84;;;18.08;59.90
71504;BME280;59323;50.874;7.028;2022-07-29T02:54:21;101032.25;;;18.06;59.92
71504;BME280;59323;50.874;7.028;2022-07-29T02:56:49;101031.91;;;18.04;60.06
71504;BME280;59323;50.874;7.028;2022-07-29T02:59:22;101036.66;;;18.00;60.04
71504;BME280;59323;50.874;7.028;2022-07-29T03:01:49;101034.72;;;17.97;60.18
71504;BME280;59323;50.874;7.028;2022-07-29T03:04:17;101046.13;;;17.96;60.48
71504;BME280;59323;50.874;7.028;2022-07-29T03:06:44;101040.66;;;17.92;60.48
71504;BME280;59323;50.874;7.028;2022-07-29T03:09:11;101048.91;;;17.92;60.65
71504;BME280;59323;50.874;7.028;2022-07-29T03:11:38;101047.75;;;17.90;60.60
71504;BME280;59323;50.874;7.028;2022-07-29T03:14:04;101040.28;;;17.90;60.73
71504;BME280;59323;50.874;7.028;2022-07-29T03:16:31;101042.25;;;17.90;60.98
71504;BME280;59323;50.874;7.028;2022-07-29T03:18:57;101058.72;;;17.93;60.93
71504;BME280;59323;50.874;7.028;2022-07-29T03:21:23;101045.84;;;17.83;60.88
71504;BME280;59323;50.874;7.028;2022-07-29T03:23:48;101056.06;;;17.83;60.97
71504;BME280;59323;50.874;7.028;2022-07-29T03:26:13;101067.03;;;17.86;60.92
71504;BME280;59323;50.874;7.028;2022-07-29T03:28:39;101065.44;;;17.89;60.78
71504;BME280;59323;50.874;7.028;2022-07-29T03:31:04;101053.31;;;17.83;60.83
71504;BME280;59323;50.874;7.028;2022-07-29T03:33:29;101056.06;;;17.83;61.12
71504;BME280;59323;50.874;7.028;2022-07-29T03:35:55;101051.38;;;17.80;60.77
71504;BME280;59323;50.874;7.028;2022-07-29T03:38:23;101043.94;;;17.77;61.11
71504;BME280;59323;50.874;7.028;2022-07-29T03:40:54;101059.59;;;17.83;60.91
71504;BME280;59323;50.874;7.028;2022-07-29T03:43:22;101062.78;;;17.78;60.92
71504;BME280;59323;50.874;7.028;2022-07-29T03:45:51;101067.06;;;17.83;61.12
71504;BME280;59323;50.874;7.028;2022-07-29T03:48:20;101057.69;;;17.77;60.73
71504;BME280;59323;50.874;7.028;2022-07-29T03:50:47;101068.25;;;17.82;60.72
71504;BME280;59323;50.874;7.028;2022-07-29T03:53:13;101067.88;;;17.80;60.76
71504;BME280;59323;50.874;7.028;2022-07-29T03:55:47;101058.50;;;17.73;60.95
71504;BME280;59323;50.874;7.028;2022-07-29T03:58:14;101048.28;;;17.74;61.18
71504;BME280;59323;50.874;7.028;2022-07-29T04:00:42;101060.06;;;17.74;60.95
71504;BME280;59323;50.874;7.028;2022-07-29T04:03:08;101060.06;;;17.74;60.99
71504;BME280;59323;50.874;7.028;2022-07-29T04:05:34;101047.16;;;17.68;61.09
71504;BME280;59323;50.874;7.028;2022-07-29T04:08:00;101049.50;;;17.66;61.02
71504;BME280;59323;50.874;7.028;2022-07-29T04:10:25;101055.81;;;17.66;61.17
71504;BME280;59323;50.874;7.028;2022-07-29T04:12:50;101064.06;;;17.66;60.97
71504;BME280;59323;50.874;7.028;2022-07-29T04:15:16;101070.31;;;17.70;61.15
71504;BME280;59323;50.874;7.028;2022-07-29T04:17:41;101072.22;;;17.77;60.21
71504;BME280;59323;50.874;7.028;2022-07-29T04:20:07;101069.50;;;17.73;59.94
71504;BME280;59323;50.874;7.028;2022-07-29T04:22:33;101074.94;;;17.81;59.88
71504;BME280;59323;50.874;7.028;2022-07-29T04:24:59;101071.81;;;17.79;59.90
71504;BME280;59323;50.874;7.028;2022-07-29T04:27:24;101060.78;;;17.82;59.19
71504;BME280;59323;50.874;7.028;2022-07-29T04:29:50;101071.34;;;17.87;59.34
71504;BME280;59323;50.874;7.028;2022-07-29T04:32:15;101073.28;;;17.90;59.34
71504;BME280;59323;50.874;7.028;2022-07-29T04:34:40;101069.69;;;17.97;59.19
71504;BME280;59323;50.874;7.028;2022-07-29T04:37:06;101068.53;;;17.94;58.91
71504;BME280;59323;50.874;7.028;2022-07-29T04:39:31;101083.03;;;17.98;58.76
71504;BME280;59323;50.874;7.028;2022-07-29T04:41:56;101077.13;;;18.00;58.60
71504;BME280;59323;50.874;7.028;2022-07-29T04:44:22;101077.91;;;18.00;58.44
71504;BME280;59323;50.874;7.028;2022-07-29T04:46:47;101080.97;;;18.10;57.58
71504;BME280;59323;50.874;7.028;2022-07-29T04:49:13;101088.03;;;18.11;57.02
71504;BME280;59323;50.874;7.028;2022-07-29T04:51:38;101085.56;;;18.20;56.30
71504;BME280;59323;50.874;7.028;2022-07-29T04:54:04;101081.69;;;18.14;56.15
71504;BME280;59323;50.874;7.028;2022-07-29T04:56:29;101077.38;;;18.13;56.09
71504;BME280;59323;50.874;7.028;2022-07-29T04:58:55;101091.06;;;18.20;55.49
71504;BME280;59323;50.874;7.028;2022-07-29T05:01:20;101092.69;;;18.17;55.92
71504;BME280;59323;50.874;7.028;2022-07-29T05:03:45;101082.34;;;18.32;54.87
71504;BME280;59323;50.874;7.028;2022-07-29T05:06:11;101084.69;;;18.33;55.31
71504;BME280;59323;50.874;7.028;2022-07-29T05:08:37;101098.03;;;18.35;55.38
71504;BME280;59323;50.874;7.028;2022-07-29T05:11:02;101094.88;;;18.36;54.99
71504;BME280;59323;50.874;7.028;2022-07-29T05:13:28;101093.34;;;18.32;55.06
71504;BME280;59323;50.874;7.028;2022-07-29T05:15:53;101103.50;;;18.38;54.49
71504;BME280;59323;50.874;7.028;2022-07-29T05:18:19;101107.03;;;18.39;55.20
71504;BME280;59323;50.874;7.028;2022-07-29T05:20:44;101108.63;;;18.36;55.02
71504;BME280;59323;50.874;7.028;2022-07-29T05:23:10;101107.78;;;18.43;54.39
71504;BME280;59323;50.874;7.028;2022-07-29T05:25:38;101117.56;;;18.48;54.65
71504;BME280;59323;50.874;7.028;2022-07-29T05:28:03;101115.19;;;18.50;54.08
71504;BME280;59323;50.874;7.028;2022-07-29T05:30:29;101123.34;;;18.57;53.70
71504;BME280;59323;50.874;7.028;2022-07-29T05:32:54;101106.44;;;18.58;53.46
71504;BME280;59323;50.874;7.028;2022-07-29T05:35:19;101114.59;;;18.69;53.20
71504;BME280;59323;50.874;7.028;2022-07-29T05:37:45;101121.19;;;18.79;53.77
71504;BME280;59323;50.874;7.028;2022-07-29T05:40:10;101117.97;;;18.84;52.75
71504;BME280;59323;50.874;7.028;2022-07-29T05:42:36;101124.19;;;18.91;52.39
71504;BME280;59323;50.874;7.028;2022-07-29T05:45:02;101122.91;;;18.99;52.00
71504;BME280;59323;50.874;7.028;2022-07-29T05:47:28;101135.41;;;19.08;51.84
71504;BME280;59323;50.874;7.028;2022-07-29T05:49:56;101147.72;;;19.30;51.41
71504;BME280;59323;50.874;7.028;2022-07-29T05:52:22;101149.97;;;19.39;51.10
71504;BME280;59323;50.874;7.028;2022-07-29T05:54:47;101168.25;;;19.59;50.36
71504;BME280;59323;50.874;7.028;2022-07-29T05:57:20;101162.81;;;19.52;50.24
71504;BME280;59323;50.874;7.028;2022-07-29T05:59:46;101168.34;;;19.52;50.65
71504;BME280;59323;50.874;7.028;2022-07-29T06:02:12;101178.91;;;19.57;50.61
71504;BME280;59323;50.874;7.028;2022-07-29T06:04:37;101162.81;;;19.52;50.28
71504;BME280;59323;50.874;7.028;2022-07-29T06:07:03;101167.88;;;19.57;50.29
71504;BME280;59323;50.874;7.028;2022-07-29T06:09:28;101173.81;;;19.56;50.76
71504;BME280;59323;50.874;7.028;2022-07-29T06:11:54;101169.75;;;19.64;51.37
71504;BME280;59323;50.874;7.028;2022-07-29T06:14:19;101176.25;;;19.77;49.17
71504;BME280;59323;50.874;7.028;2022-07-29T06:16:45;101187.38;;;19.97;50.48
71504;BME280;59323;50.874;7.028;2022-07-29T06:19:10;101197.34;;;20.14;49.86
71504;BME280;59323;50.874;7.028;2022-07-29T06:21:36;101196.88;;;20.46;47.79
71504;BME280;59323;50.874;7.028;2022-07-29T06:24:01;101189.84;;;20.65;47.58
71504;BME280;59323;50.874;7.028;2022-07-29T06:26:27;101184.81;;;20.60;47.66
71504;BME280;59323;50.874;7.028;2022-07-29T06:28:53;101193.94;;;20.57;48.74
71504;BME280;59323;50.874;7.028;2022-07-29T06:31:22;101192.06;;;20.50;47.79
71504;BME280;59323;50.874;7.028;2022-07-29T06:33:47;101196.47;;;20.48;47.86
71504;BME280;59323;50.874;7.028;2022-07-29T06:36:13;101189.00;;;20.45;47.42
71504;BME280;59323;50.874;7.028;2022-07-29T06:38:38;101198.03;;;20.49;47.44
71504;BME280;59323;50.874;7.028;2022-07-29T06:41:03;101188.59;;;20.46;47.57
71504;BME280;59323;50.874;7.028;2022-07-29T06:43:38;101185.97;;;20.39;48.08
71504;BME280;59323;50.874;7.028;2022-07-29T06:46:08;101184.69;;;20.44;49.30
71504;BME280;59323;50.874;7.028;2022-07-29T06:48:34;101189.41;;;20.67;50.01
71504;BME280;59323;50.874;7.028;2022-07-29T06:51:01;101179.84;;;20.71;47.99
71504;BME280;59323;50.874;7.028;2022-07-29T06:53:27;101188.84;;;20.75;48.16
71504;BME280;59323;50.874;7.028;2022-07-29T06:55:53;101166.53;;;20.66;48.89
71504;BME280;59323;50.874;7.028;2022-07-29T06:58:18;101177.09;;;20.71;48.49
71504;BME280;59323;50.874;7.028;2022-07-29T07:00:46;101177.31;;;20.80;47.66
71504;BME280;59323;50.874;7.028;2022-07-29T07:03:12;101179.63;;;20.85;47.32
71504;BME280;59323;50.874;7.028;2022-07-29T07:05:37;101189.09;;;20.84;47.43
71504;BME280;59323;50.874;7.028;2022-07-29T07:08:03;101180.22;;;20.73;48.87
71504;BME280;59323;50.874;7.028;2022-07-29T07:10:29;101189.53;;;20.83;47.08
71504;BME280;59323;50.874;7.028;2022-07-29T07:12:54;101197.41;;;20.84;47.76
71504;BME280;59323;50.874;7.028;2022-07-29T07:15:20;101198.63;;;20.80;48.82
71504;BME280;59323;50.874;7.028;2022-07-29T07:17:49;101181.25;;;20.83;47.57
71504;BME280;59323;50.874;7.028;2022-07-29T07:20:15;101186.56;;;20.94;47.93
71504;BME280;59323;50.874;7.028;2022-07-29T07:22:41;101180.41;;;21.06;47.36
71504;BME280;59323;50.874;7.028;2022-07-29T07:25:06;101181.81;;;21.14;47.38
71504;BME280;59323;50.874;7.028;2022-07-29T07:27:32;101178.69;;;21.12;47.53
71504;BME280;59323;50.874;7.028;2022-07-29T07:29:57;101171.25;;;21.09;47.61
71504;BME280;59323;50.874;7.028;2022-07-29T07:32:23;101177.50;;;21.13;47.92
71504;BME280;59323;50.874;7.028;2022-07-29T07:34:48;101179.81;;;21.14;48.21
71504;BME280;59323;50.874;7.028;2022-07-29T07:37:14;101187.06;;;21.08;47.71
71504;BME280;59323;50.874;7.028;2022-07-29T07:39:40;101186.78;;;21.03;48.20
71504;BME280;59323;50.874;7.028;2022-07-29T07:42:05;101197.25;;;21.11;46.84
71504;BME280;59323;50.874;7.028;2022-07-29T07:44:31;101196.63;;;21.04;48.74
71504;BME280;59323;50.874;7.028;2022-07-29T07:46:57;101196.34;;;20.98;49.30
71504;BME280;59323;50.874;7.028;2022-07-29T07:49:23;101206.97;;;21.00;49.51
71504;BME280;59323;50.874;7.028;2022-07-29T07:51:48;101192.38;;;20.99;47.81
71504;BME280;59323;50.874;7.028;2022-07-29T07:54:14;101193.94;;;21.00;47.17
71504;BME280;59323;50.874;7.028;2022-07-29T07:56:39;101186.78;;;21.03;46.91
71504;BME280;59323;50.874;7.028;2022-07-29T07:59:05;101194.00;;;20.97;47.28
71504;BME280;59323;50.874;7.028;2022-07-29T08:01:30;101195.22;;;20.96;48.41
71504;BME280;59323;50.874;7.028;2022-07-29T08:03:56;101181.59;;;20.85;50.36
71504;BME280;59323;50.874;7.028;2022-07-29T08:06:21;101187.53;;;20.83;51.46
71504;BME280;59323;50.874;7.028;2022-07-29T08:08:46;101175.25;;;20.65;51.84
71504;BME280;59323;50.874;7.028;2022-07-29T08:11:12;101178.91;;;20.58;52.72
71504;BME280;59323;50.874;7.028;2022-07-29T08:13:38;101178.44;;;20.63;52.95
71504;BME280;59323;50.874;7.028;2022-07-29T08:16:03;101170.34;;;20.52;53.03
71504;BME280;59323;50.874;7.028;2022-07-29T08:18:40;101178.34;;;20.47;52.94
71504;BME280;59323;50.874;7.028;2022-07-29T08:21:06;101177.13;;;20.48;53.46
71504;BME280;59323;50.874;7.028;2022-07-29T08:23:32;101180.19;;;20.53;53.92
71504;BME280;59323;50.874;7.028;2022-07-29T08:26:07;101176.50;;;20.60;54.34
71504;BME280;59323;50.874;7.028;2022-07-29T08:28:37;101175.53;;;20.70;55.20
71504;BME280;59323;50.874;7.028;2022-07-29T08:31:02;101180.88;;;20.81;53.97
71504;BME280;59323;50.874;7.028;2022-07-29T08:33:28;101179.56;;;20.89;52.75
71504;BME280;59323;50.874;7.028;2022-07-29T08:35:53;101178.69;;;20.92;52.56
71504;BME280;59323;50.874;7.028;2022-07-29T08:38:18;101173.94;;;20.93;52.16
71504;BME280;59323;50.874;7.028;2022-07-29T08:40:45;101190.31;;;21.03;51.70
71504;BME280;59323;50.874;7.028;2022-07-29T08:43:10;101176.44;;;21.07;51.04
71504;BME280;59323;50.874;7.028;2022-07-29T08:48:06;101173.09;;;21.15;50.62
71504;BME280;59323;50.874;7.028;2022-07-29T08:50:35;101180.59;;;21.15;50.80
71504;BME280;59323;50.874;7.028;2022-07-29T08:53:01;101184.06;;;21.19;51.68
71504;BME280;59323;50.874;7.028;2022-07-29T08:55:27;101180.41;;;21.26;52.32
71504;BME280;59323;50.874;7.028;2022-07-29T08:57:53;101185.00;;;21.32;52.05
71504;BME280;59323;50.874;7.028;2022-07-29T09:00:20;101173.09;;;21.35;51.87
71504;BME280;59323;50.874;7.028;2022-07-29T09:02:48;101179.56;;;21.48;51.13
71504;BME280;59323;50.874;7.028;2022-07-29T09:05:17;101168.84;;;21.50;51.25
71504;BME280;59323;50.874;7.028;2022-07-29T09:07:43;101179.75;;;21.58;51.46
71504;BME280;59323;50.874;7.028;2022-07-29T09:10:10;101175.28;;;21.64;51.40
71504;BME280;59323;50.874;7.028;2022-07-29T09:12:35;101174.44;;;21.83;51.08
71504;BME280;59323;50.874;7.028;2022-07-29T09:15:00;101172.72;;;22.05;51.67
71504;BME280;59323;50.874;7.028;2022-07-29T09:17:47;101172.13;;;22.46;50.19
71504;BME280;59323;50.874;7.028;2022-07-29T09:20:20;101167.56;;;22.85;50.31
71504;BME280;59323;50.874;7.028;2022-07-29T09:22:47;101180.19;;;23.15;47.50
71504;BME280;59323;50.874;7.028;2022-07-29T09:25:15;101171.97;;;23.12;48.35
71504;BME280;59323;50.874;7.028;2022-07-29T09:28:05;101162.44;;;23.13;49.62
71504;BME280;59323;50.874;7.028;2022-07-29T09:30:31;101177.09;;;23.38;48.57
71504;BME280;59323;50.874;7.028;2022-07-29T09:32:58;101172.59;;;23.45;48.07
71504;BME280;59323;50.874;7.028;2022-07-29T09:35:27;101173.50;;;23.54;47.65
71504;BME280;59323;50.874;7.028;2022-07-29T09:37:53;101178.06;;;23.61;48.52
71504;BME280;59323;50.874;7.028;2022-07-29T09:40:21;101177.41;;;23.69;48.74
71504;BME280;59323;50.874;7.028;2022-07-29T09:42:47;101175.63;;;23.63;47.92
71504;BME280;59323;50.874;7.028;2022-07-29T09:45:32;101165.50;;;23.44;48.40
71504;BME280;59323;50.874;7.028;2022-07-29T09:47:58;101178.34;;;23.37;49.17
71504;BME280;59323;50.874;7.028;2022-07-29T09:50:42;101184.97;;;23.27;49.72
71504;BME280;59323;50.874;7.028;2022-07-29T09:53:09;101177.63;;;23.21;50.09
71504;BME280;59323;50.874;7.028;2022-07-29T09:55:48;101173.47;;;23.42;50.39
71504;BME280;59323;50.874;7.028;2022-07-29T09:58:18;101177.25;;;23.48;48.25
71504;BME280;59323;50.874;7.028;2022-07-29T10:00:46;101183.69;;;23.45;48.24
71504;BME280;59323;50.874;7.028;2022-07-29T10:03:15;101167.94;;;23.42;47.79
71504;BME280;59323;50.874;7.028;2022-07-29T10:05:41;101176.66;;;23.40;48.59
71504;BME280;59323;50.874;7.028;2022-07-29T10:08:07;101184.88;;;23.31;49.31
71504;BME280;59323;50.874;7.028;2022-07-29T10:10:39;101181.69;;;23.45;48.64
71504;BME280;59323;50.874;7.028;2022-07-29T10:13:07;101176.97;;;23.84;50.19
71504;BME280;59323;50.874;7.028;2022-07-29T10:15:36;101166.84;;;24.02;47.30
71504;BME280;59323;50.874;7.028;2022-07-29T10:18:04;101179.59;;;24.25;45.91
71504;BME280;59323;50.874;7.028;2022-07-29T10:20:30;101171.16;;;24.03;46.82
71504;BME280;59323;50.874;7.028;2022-07-29T10:22:56;101170.28;;;24.07;45.22
71504;BME280;59323;50.874;7.028;2022-07-29T10:25:22;101171.50;;;24.06;44.99
71504;BME280;59323;50.874;7.028;2022-07-29T10:27:48;101178.72;;;24.16;44.66
71504;BME280;59323;50.874;7.028;2022-07-29T10:30:17;101171.03;;;24.20;44.89
71504;BME280;59323;50.874;7.028;2022-07-29T10:38:42;101173.03;;;24.32;46.23
71504;BME280;59323;50.874;7.028;2022-07-29T10:44:23;101165.19;;;24.52;44.82
71504;BME280;59323;50.874;7.028;2022-07-29T10:46:51;101171.75;;;24.58;44.25
71504;BME280;59323;50.874;7.028;2022-07-29T10:49:18;101170.97;;;24.58;44.27
71504;BME280;59323;50.874;7.028;2022-07-29T10:52:02;101171.09;;;24.54;44.95
71504;BME280;59323;50.874;7.028;2022-07-29T10:59:48;101165.28;;;25.49;42.23
71504;BME280;59323;50.874;7.028;2022-07-29T11:07:35;101164.69;;;25.54;39.99
71504;BME280;59323;50.874;7.028;2022-07-29T11:23:22;101164.94;;;25.38;38.12
71504;BME280;59323;50.874;7.028;2022-07-29T11:31:33;101165.13;;;25.83;38.26
71504;BME280;59323;50.874;7.028;2022-07-29T11:34:29;101159.38;;;25.69;38.72
71504;BME280;59323;50.874;7.028;2022-07-29T11:39:47;101163.19;;;25.62;38.80
71504;BME280;59323;50.874;7.028;2022-07-29T11:45:13;101165.38;;;25.67;38.05
71504;BME280;59323;50.874;7.028;2022-07-29T11:50:35;101163.91;;;25.53;38.26
71504;BME280;59323;50.874;7.028;2022-07-29T11:53:03;101152.09;;;25.71;36.83
71504;BME280;59323;50.874;7.028;2022-07-29T11:55:37;101147.81;;;25.88;34.41
71504;BME280;59323;50.874;7.028;2022-07-29T11:58:03;101162.44;;;26.11;37.03
71504;BME280;59323;50.874;7.028;2022-07-29T12:02:54;101151.34;;;26.38;35.72
71504;BME280;59323;50.874;7.028;2022-07-29T12:05:20;101159.38;;;26.27;34.96
71504;BME280;59323;50.874;7.028;2022-07-29T12:07:47;101159.34;;;26.18;36.33
71504;BME280;59323;50.874;7.028;2022-07-29T12:10:15;101152.09;;;26.30;36.37
71504;BME280;59323;50.874;7.028;2022-07-29T12:12:41;101148.84;;;26.31;36.33
71504;BME280;59323;50.874;7.028;2022-07-29T12:15:13;101158.31;;;26.43;36.40
71504;BME280;59323;50.874;7.028;2022-07-29T12:17:40;101157.25;;;26.49;35.84
71504;BME280;59323;50.874;7.028;2022-07-29T12:20:06;101158.16;;;26.37;36.42
71504;BME280;59323;50.874;7.028;2022-07-29T12:22:34;101164.00;;;26.21;36.48
71504;BME280;59323;50.874;7.028;2022-07-29T12:25:04;101161.75;;;25.98;37.78
71504;BME280;59323;50.874;7.028;2022-07-29T12:27:30;101157.88;;;25.86;37.36
71504;BME280;59323;50.874;7.028;2022-07-29T12:30:00;101151.13;;;25.65;38.63
71504;BME280;59323;50.874;7.028;2022-07-29T12:32:38;101151.53;;;25.54;38.80
71504;BME280;59323;50.874;7.028;2022-07-29T12:35:06;101149.09;;;25.56;38.56
71504;BME280;59323;50.874;7.028;2022-07-29T12:37:33;101153.41;;;25.57;38.59
71504;BME280;59323;50.874;7.028;2022-07-29T12:40:01;101147.16;;;25.75;38.62
71504;BME280;59323;50.874;7.028;2022-07-29T12:42:26;101158.50;;;25.90;37.82
71504;BME280;59323;50.874;7.028;2022-07-29T12:44:52;101149.16;;;25.75;37.70
71504;BME280;59323;50.874;7.028;2022-07-29T12:47:19;101139.44;;;25.79;38.47
71504;BME280;59323;50.874;7.028;2022-07-29T12:49:46;101149.34;;;25.80;39.25
71504;BME280;59323;50.874;7.028;2022-07-29T12:54:50;101150.63;;;25.98;38.55
71504;BME280;59323;50.874;7.028;2022-07-29T12:57:15;101147.88;;;26.07;38.85
71504;BME280;59323;50.874;7.028;2022-07-29T12:59:41;101144.50;;;26.12;37.85
71504;BME280;59323;50.874;7.028;2022-07-29T13:02:06;101158.88;;;26.10;37.56
71504;BME280;59323;50.874;7.028;2022-07-29T13:04:33;101141.22;;;26.04;38.84
71504;BME280;59323;50.874;7.028;2022-07-29T13:07:05;101148.31;;;25.96;37.18
71504;BME280;59323;50.874;7.028;2022-07-29T13:09:44;101150.75;;;25.85;37.54
71504;BME280;59323;50.874;7.028;2022-07-29T13:12:13;101143.16;;;25.85;36.79
71504;BME280;59323;50.874;7.028;2022-07-29T13:14:41;101148.75;;;25.95;37.33
71504;BME280;59323;50.874;7.028;2022-07-29T13:17:09;101132.56;;;26.02;36.55
71504;BME280;59323;50.874;7.028;2022-07-29T13:19:40;101146.03;;;26.13;35.42
71504;BME280;59323;50.874;7.028;2022-07-29T13:22:07;101145.09;;;26.07;35.34
71504;BME280;59323;50.874;7.028;2022-07-29T13:24:33;101136.13;;;26.03;36.39
71504;BME280;59323;50.874;7.028;2022-07-29T13:26:59;101145.75;;;26.20;36.00
71504;BME280;59323;50.874;7.028;2022-07-29T13:29:24;101139.28;;;26.41;35.63
71504;BME280;59323;50.874;7.028;2022-07-29T13:31:52;101141.91;;;26.63;34.75
71504;BME280;59323;50.874;7.028;2022-07-29T13:34:17;101139.28;;;26.78;35.30
71504;BME280;59323;50.874;7.028;2022-07-29T13:36:44;101141.44;;;26.92;34.73
71504;BME280;59323;50.874;7.028;2022-07-29T13:39:10;101140.78;;;26.97;33.18
71504;BME280;59323;50.874;7.028;2022-07-29T13:41:36;101132.91;;;26.87;33.71
71504;BME280;59323;50.874;7.028;2022-07-29T13:44:02;101132.31;;;26.73;35.90
71504;BME280;59323;50.874;7.028;2022-07-29T13:46:27;101135.25;;;26.79;34.26
71504;BME280;59323;50.874;7.028;2022-07-29T13:48:53;101136.78;;;26.89;35.20
71504;BME280;59323;50.874;7.028;2022-07-29T13:51:18;101123.16;;;27.00;34.02
71504;BME280;59323;50.874;7.028;2022-07-29T13:53:43;101128.09;;;27.05;33.54
71504;BME280;59323;50.874;7.028;2022-07-29T13:56:09;101125.59;;;27.07;33.28
71504;BME280;59323;50.874;7.028;2022-07-29T13:58:34;101131.50;;;26.91;33.25
71504;BME280;59323;50.874;7.028;2022-07-29T14:01:00;101136.81;;;26.80;34.08
71504;BME280;59323;50.874;7.028;2022-07-29T14:03:25;101127.97;;;26.63;35.17